sensor_id;sensor_type;location;lat;lon;timestamp;P1;durP1;ratioP1;P2;durP2;ratioP2
76725;SDS011;65651;53.154;17.916;2023-05-23T00:00:21;6.50;;;3.90;;
76725;SDS011;65651;53.154;17.916;2023-05-23T00:03:09;7.70;;;4.50;;
76725;SDS011;65651;53.154;17.916;2023-05-23T00:05:37;10.50;;;4.50;;
76725;SDS011;65651;53.154;17.916;2023-05-23T00:08:04;7.00;;;4.40;;
76725;SDS011;65651;53.154;17.916;2023-05-23T00:10:31;7.80;;;4.40;;
76725;SDS011;65651;53.154;17.916;2023-05-23T00:12:59;8.20;;;4.10;;
76725;SDS011;65651;53.154;17.916;2023-05-23T00:15:26;7.50;;;4.50;;
76725;SDS011;65651;53.154;17.916;2023-05-23T00:17:53;8.60;;;4.40;;
76725;SDS011;65651;53.154;17.916;2023-05-23T00:20:21;5.70;;;3.40;;
76725;SDS011;65651;53.154;17.916;2023-05-23T00:22:48;8.60;;;4.60;;
76725;SDS011;65651;53.154;17.916;2023-05-23T00:25:16;8.40;;;4.70;;
76725;SDS011;65651;53.154;17.916;2023-05-23T00:27:43;7.50;;;4.30;;
76725;SDS011;65651;53.154;17.916;2023-05-23T00:30:10;6.80;;;4.20;;
76725;SDS011;65651;53.154;17.916;2023-05-23T00:32:38;5.00;;;3.60;;
76725;SDS011;65651;53.154;17.916;2023-05-23T00:35:05;19.30;;;4.70;;
76725;SDS011;65651;53.154;17.916;2023-05-23T00:37:33;11.80;;;4.80;;
76725;SDS011;65651;53.154;17.916;2023-05-23T00:40:01;9.60;;;4.50;;
76725;SDS011;65651;53.154;17.916;2023-05-23T00:42:28;7.20;;;4.70;;
76725;SDS011;65651;53.154;17.916;2023-05-23T00:44:58;7.60;;;4.70;;
76725;SDS011;65651;53.154;17.916;2023-05-23T00:47:25;5.70;;;4.00;;
76725;SDS011;65651;53.154;17.916;2023-05-23T00:49:54;6.40;;;5.20;;
76725;SDS011;65651;53.154;17.916;2023-05-23T00:52:22;7.80;;;4.50;;
76725;SDS011;65651;53.154;17.916;2023-05-23T00:54:49;6.90;;;4.40;;
76725;SDS011;65651;53.154;17.916;2023-05-23T00:57:16;6.50;;;4.40;;
76725;SDS011;65651;53.154;17.916;2023-05-23T00:59:45;6.90;;;5.20;;
76725;SDS011;65651;53.154;17.916;2023-05-23T01:02:13;8.10;;;4.10;;
76725;SDS011;65651;53.154;17.916;2023-05-23T01:04:40;9.00;;;4.70;;
76725;SDS011;65651;53.154;17.916;2023-05-23T01:07:17;7.40;;;4.30;;
76725;SDS011;65651;53.154;17.916;2023-05-23T01:09:44;7.00;;;5.30;;
76725;SDS011;65651;53.154;17.916;2023-05-23T01:14:46;8.10;;;6.10;;
76725;SDS011;65651;53.154;17.916;2023-05-23T01:17:33;9.60;;;5.50;;
76725;SDS011;65651;53.154;17.916;2023-05-23T01:20:11;7.40;;;5.30;;
76725;SDS011;65651;53.154;17.916;2023-05-23T01:22:48;10.30;;;6.20;;
76725;SDS011;65651;53.154;17.916;2023-05-23T01:25:34;8.30;;;5.20;;
76725;SDS011;65651;53.154;17.916;2023-05-23T01:28:17;9.40;;;5.10;;
76725;SDS011;65651;53.154;17.916;2023-05-23T01:30:49;8.80;;;5.40;;
76725;SDS011;65651;53.154;17.916;2023-05-23T01:33:18;7.10;;;5.20;;
76725;SDS011;65651;53.154;17.916;2023-05-23T01:35:46;7.70;;;5.30;;
76725;SDS011;65651;53.154;17.916;2023-05-23T01:38:15;13.50;;;5.60;;
76725;SDS011;65651;53.154;17.916;2023-05-23T01:40:42;7.00;;;5.00;;
76725;SDS011;65651;53.154;17.916;2023-05-23T01:43:12;8.20;;;5.40;;
76725;SDS011;65651;53.154;17.916;2023-05-23T01:45:39;9.90;;;5.60;;
76725;SDS011;65651;53.154;17.916;2023-05-23T01:48:07;6.40;;;5.00;;
76725;SDS011;65651;53.154;17.916;2023-05-23T01:50:37;15.10;;;5.80;;
76725;SDS011;65651;53.154;17.916;2023-05-23T01:53:06;8.50;;;5.40;;
76725;SDS011;65651;53.154;17.916;2023-05-23T01:55:35;7.10;;;4.90;;
76725;SDS011;65651;53.154;17.916;2023-05-23T01:58:07;8.30;;;6.10;;
76725;SDS011;65651;53.154;17.916;2023-05-23T02:00:35;6.40;;;5.20;;
76725;SDS011;65651;53.154;17.916;2023-05-23T02:03:06;8.40;;;5.80;;
76725;SDS011;65651;53.154;17.916;2023-05-23T02:05:33;7.60;;;5.50;;
76725;SDS011;65651;53.154;17.916;2023-05-23T02:08:02;7.40;;;5.70;;
76725;SDS011;65651;53.154;17.916;2023-05-23T02:10:29;8.10;;;6.10;;
76725;SDS011;65651;53.154;17.916;2023-05-23T02:12:57;8.60;;;5.60;;
76725;SDS011;65651;53.154;17.916;2023-05-23T02:15:24;7.40;;;5.40;;
76725;SDS011;65651;53.154;17.916;2023-05-23T02:17:51;7.70;;;5.20;;
76725;SDS011;65651;53.154;17.916;2023-05-23T02:20:19;12.30;;;6.10;;
76725;SDS011;65651;53.154;17.916;2023-05-23T02:22:51;11.60;;;6.10;;
76725;SDS011;65651;53.154;17.916;2023-05-23T02:25:18;27.30;;;7.00;;
76725;SDS011;65651;53.154;17.916;2023-05-23T02:27:46;12.30;;;6.40;;
76725;SDS011;65651;53.154;17.916;2023-05-23T02:30:13;10.10;;;6.30;;
76725;SDS011;65651;53.154;17.916;2023-05-23T02:32:41;9.20;;;6.40;;
76725;SDS011;65651;53.154;17.916;2023-05-23T02:35:08;7.30;;;5.50;;
76725;SDS011;65651;53.154;17.916;2023-05-23T02:37:36;19.10;;;6.10;;
76725;SDS011;65651;53.154;17.916;2023-05-23T02:40:04;8.60;;;6.70;;
76725;SDS011;65651;53.154;17.916;2023-05-23T02:42:36;11.20;;;7.40;;
76725;SDS011;65651;53.154;17.916;2023-05-23T02:45:03;12.40;;;7.60;;
76725;SDS011;65651;53.154;17.916;2023-05-23T02:47:31;13.10;;;9.20;;
76725;SDS011;65651;53.154;17.916;2023-05-23T02:49:59;10.10;;;7.00;;
76725;SDS011;65651;53.154;17.916;2023-05-23T02:52:26;15.10;;;7.20;;
76725;SDS011;65651;53.154;17.916;2023-05-23T02:54:54;12.90;;;7.50;;
76725;SDS011;65651;53.154;17.916;2023-05-23T02:57:21;12.40;;;8.50;;
76725;SDS011;65651;53.154;17.916;2023-05-23T02:59:50;11.50;;;7.20;;
76725;SDS011;65651;53.154;17.916;2023-05-23T03:02:17;10.00;;;6.70;;
76725;SDS011;65651;53.154;17.916;2023-05-23T03:04:44;15.60;;;8.50;;
76725;SDS011;65651;53.154;17.916;2023-05-23T03:07:12;10.20;;;7.10;;
76725;SDS011;65651;53.154;17.916;2023-05-23T03:09:40;13.80;;;7.30;;
76725;SDS011;65651;53.154;17.916;2023-05-23T03:12:08;20.90;;;7.20;;
76725;SDS011;65651;53.154;17.916;2023-05-23T03:14:35;16.60;;;6.80;;
76725;SDS011;65651;53.154;17.916;2023-05-23T03:17:02;8.80;;;6.80;;
76725;SDS011;65651;53.154;17.916;2023-05-23T03:19:30;12.40;;;7.00;;
76725;SDS011;65651;53.154;17.916;2023-05-23T03:22:00;18.90;;;6.80;;
76725;SDS011;65651;53.154;17.916;2023-05-23T03:24:27;10.50;;;6.70;;
76725;SDS011;65651;53.154;17.916;2023-05-23T03:26:57;9.80;;;7.10;;
76725;SDS011;65651;53.154;17.916;2023-05-23T03:29:25;15.10;;;6.70;;
76725;SDS011;65651;53.154;17.916;2023-05-23T03:31:53;9.00;;;7.40;;
76725;SDS011;65651;53.154;17.916;2023-05-23T03:34:20;10.70;;;7.70;;
76725;SDS011;65651;53.154;17.916;2023-05-23T03:36:49;11.80;;;7.50;;
76725;SDS011;65651;53.154;17.916;2023-05-23T03:39:16;16.00;;;7.80;;
76725;SDS011;65651;53.154;17.916;2023-05-23T03:41:44;10.60;;;7.10;;
76725;SDS011;65651;53.154;17.916;2023-05-23T03:44:11;11.70;;;7.80;;
76725;SDS011;65651;53.154;17.916;2023-05-23T03:46:40;12.00;;;7.80;;
76725;SDS011;65651;53.154;17.916;2023-05-23T03:49:11;12.50;;;7.60;;
76725;SDS011;65651;53.154;17.916;2023-05-23T03:51:38;13.40;;;7.70;;
76725;SDS011;65651;53.154;17.916;2023-05-23T03:54:06;13.80;;;8.40;;
76725;SDS011;65651;53.154;17.916;2023-05-23T03:56:33;10.00;;;7.70;;
76725;SDS011;65651;53.154;17.916;2023-05-23T03:59:01;15.30;;;8.70;;
76725;SDS011;65651;53.154;17.916;2023-05-23T04:01:28;10.50;;;8.50;;
76725;SDS011;65651;53.154;17.916;2023-05-23T04:03:55;12.90;;;7.80;;
76725;SDS011;65651;53.154;17.916;2023-05-23T04:06:24;12.30;;;8.10;;
76725;SDS011;65651;53.154;17.916;2023-05-23T04:08:52;11.00;;;8.40;;
76725;SDS011;65651;53.154;17.916;2023-05-23T04:11:20;10.30;;;8.40;;
76725;SDS011;65651;53.154;17.916;2023-05-23T04:13:51;13.50;;;8.50;;
76725;SDS011;65651;53.154;17.916;2023-05-23T04:16:19;15.30;;;8.20;;
76725;SDS011;65651;53.154;17.916;2023-05-23T04:18:49;13.40;;;8.50;;
76725;SDS011;65651;53.154;17.916;2023-05-23T04:21:17;16.90;;;9.30;;
76725;SDS011;65651;53.154;17.916;2023-05-23T04:23:54;16.10;;;9.00;;
76725;SDS011;65651;53.154;17.916;2023-05-23T04:26:22;12.70;;;9.40;;
76725;SDS011;65651;53.154;17.916;2023-05-23T04:28:52;13.00;;;8.80;;
76725;SDS011;65651;53.154;17.916;2023-05-23T04:31:22;13.50;;;8.40;;
76725;SDS011;65651;53.154;17.916;2023-05-23T04:33:49;15.50;;;8.90;;
76725;SDS011;65651;53.154;17.916;2023-05-23T04:36:18;14.80;;;8.70;;
76725;SDS011;65651;53.154;17.916;2023-05-23T04:38:50;13.20;;;8.90;;
76725;SDS011;65651;53.154;17.916;2023-05-23T04:41:18;19.30;;;8.70;;
76725;SDS011;65651;53.154;17.916;2023-05-23T04:44:04;13.00;;;8.60;;
76725;SDS011;65651;53.154;17.916;2023-05-23T04:46:36;12.40;;;8.30;;
76725;SDS011;65651;53.154;17.916;2023-05-23T04:49:21;12.60;;;8.80;;
76725;SDS011;65651;53.154;17.916;2023-05-23T04:51:48;15.00;;;8.70;;
76725;SDS011;65651;53.154;17.916;2023-05-23T04:54:23;11.00;;;8.10;;
76725;SDS011;65651;53.154;17.916;2023-05-23T04:56:50;11.50;;;7.90;;
76725;SDS011;65651;53.154;17.916;2023-05-23T04:59:19;9.30;;;7.30;;
76725;SDS011;65651;53.154;17.916;2023-05-23T05:01:46;9.20;;;8.20;;
76725;SDS011;65651;53.154;17.916;2023-05-23T05:04:14;10.10;;;7.80;;
76725;SDS011;65651;53.154;17.916;2023-05-23T05:06:41;11.60;;;7.60;;
76725;SDS011;65651;53.154;17.916;2023-05-23T05:09:09;9.70;;;8.40;;
76725;SDS011;65651;53.154;17.916;2023-05-23T05:11:37;11.40;;;7.70;;
76725;SDS011;65651;53.154;17.916;2023-05-23T05:14:04;8.80;;;7.70;;
76725;SDS011;65651;53.154;17.916;2023-05-23T05:16:31;11.40;;;7.20;;
76725;SDS011;65651;53.154;17.916;2023-05-23T05:19:00;11.00;;;7.20;;
76725;SDS011;65651;53.154;17.916;2023-05-23T05:21:28;16.00;;;6.90;;
76725;SDS011;65651;53.154;17.916;2023-05-23T05:23:55;8.60;;;7.60;;
76725;SDS011;65651;53.154;17.916;2023-05-23T05:26:23;12.20;;;7.20;;
76725;SDS011;65651;53.154;17.916;2023-05-23T05:28:51;41.90;;;7.90;;
76725;SDS011;65651;53.154;17.916;2023-05-23T05:31:19;13.60;;;6.80;;
76725;SDS011;65651;53.154;17.916;2023-05-23T05:33:47;13.80;;;7.00;;
76725;SDS011;65651;53.154;17.916;2023-05-23T05:36:16;18.40;;;6.50;;
76725;SDS011;65651;53.154;17.916;2023-05-23T05:38:44;15.40;;;7.00;;
76725;SDS011;65651;53.154;17.916;2023-05-23T05:41:12;14.30;;;6.90;;
76725;SDS011;65651;53.154;17.916;2023-05-23T05:43:44;10.00;;;6.70;;
76725;SDS011;65651;53.154;17.916;2023-05-23T05:46:12;7.70;;;5.20;;
76725;SDS011;65651;53.154;17.916;2023-05-23T05:48:40;8.40;;;6.20;;
76725;SDS011;65651;53.154;17.916;2023-05-23T05:51:12;11.50;;;5.70;;
76725;SDS011;65651;53.154;17.916;2023-05-23T05:53:40;11.50;;;6.10;;
76725;SDS011;65651;53.154;17.916;2023-05-23T05:56:08;10.30;;;5.70;;
76725;SDS011;65651;53.154;17.916;2023-05-23T05:58:36;10.20;;;5.90;;
76725;SDS011;65651;53.154;17.916;2023-05-23T06:01:07;14.30;;;5.50;;
76725;SDS011;65651;53.154;17.916;2023-05-23T06:03:35;11.80;;;5.70;;
76725;SDS011;65651;53.154;17.916;2023-05-23T06:06:04;9.90;;;6.30;;
76725;SDS011;65651;53.154;17.916;2023-05-23T06:08:32;10.90;;;5.50;;
76725;SDS011;65651;53.154;17.916;2023-05-23T06:11:00;9.00;;;5.50;;
76725;SDS011;65651;53.154;17.916;2023-05-23T06:13:27;12.10;;;5.90;;
76725;SDS011;65651;53.154;17.916;2023-05-23T06:15:54;8.00;;;5.80;;
76725;SDS011;65651;53.154;17.916;2023-05-23T06:18:22;7.80;;;5.70;;
76725;SDS011;65651;53.154;17.916;2023-05-23T06:20:50;8.00;;;4.80;;
76725;SDS011;65651;53.154;17.916;2023-05-23T06:23:18;8.90;;;4.80;;
76725;SDS011;65651;53.154;17.916;2023-05-23T06:25:46;12.70;;;5.10;;
76725;SDS011;65651;53.154;17.916;2023-05-23T06:28:14;12.70;;;5.10;;
76725;SDS011;65651;53.154;17.916;2023-05-23T06:30:41;9.30;;;5.30;;
76725;SDS011;65651;53.154;17.916;2023-05-23T06:33:08;6.50;;;4.50;;
76725;SDS011;65651;53.154;17.916;2023-05-23T06:35:37;7.90;;;4.40;;
76725;SDS011;65651;53.154;17.916;2023-05-23T06:38:05;5.90;;;4.60;;
76725;SDS011;65651;53.154;17.916;2023-05-23T06:40:33;7.50;;;3.80;;
76725;SDS011;65651;53.154;17.916;2023-05-23T06:43:01;4.70;;;3.60;;
76725;SDS011;65651;53.154;17.916;2023-05-23T06:45:45;9.20;;;4.30;;
76725;SDS011;65651;53.154;17.916;2023-05-23T06:48:16;7.30;;;3.80;;
76725;SDS011;65651;53.154;17.916;2023-05-23T06:50:44;7.10;;;3.70;;
76725;SDS011;65651;53.154;17.916;2023-05-23T06:53:12;10.20;;;3.40;;
76725;SDS011;65651;53.154;17.916;2023-05-23T06:55:40;7.50;;;3.30;;
76725;SDS011;65651;53.154;17.916;2023-05-23T06:58:08;7.00;;;3.90;;
76725;SDS011;65651;53.154;17.916;2023-05-23T07:00:36;8.10;;;4.00;;
76725;SDS011;65651;53.154;17.916;2023-05-23T07:03:14;11.50;;;3.90;;
76725;SDS011;65651;53.154;17.916;2023-05-23T07:05:42;7.90;;;3.50;;
76725;SDS011;65651;53.154;17.916;2023-05-23T07:08:10;6.80;;;3.40;;
76725;SDS011;65651;53.154;17.916;2023-05-23T07:10:38;13.20;;;4.00;;
76725;SDS011;65651;53.154;17.916;2023-05-23T07:13:20;6.60;;;4.20;;
76725;SDS011;65651;53.154;17.916;2023-05-23T07:15:47;5.00;;;3.50;;
76725;SDS011;65651;53.154;17.916;2023-05-23T07:18:15;14.20;;;3.90;;
76725;SDS011;65651;53.154;17.916;2023-05-23T07:20:42;5.30;;;3.70;;
76725;SDS011;65651;53.154;17.916;2023-05-23T07:23:14;9.60;;;3.80;;
76725;SDS011;65651;53.154;17.916;2023-05-23T07:25:42;5.80;;;3.30;;
76725;SDS011;65651;53.154;17.916;2023-05-23T07:28:16;7.80;;;3.10;;
76725;SDS011;65651;53.154;17.916;2023-05-23T07:30:43;8.30;;;4.30;;
76725;SDS011;65651;53.154;17.916;2023-05-23T07:33:12;10.70;;;3.70;;
76725;SDS011;65651;53.154;17.916;2023-05-23T07:35:40;4.50;;;3.90;;
76725;SDS011;65651;53.154;17.916;2023-05-23T07:38:08;8.90;;;4.10;;
76725;SDS011;65651;53.154;17.916;2023-05-23T07:40:35;6.10;;;3.40;;
76725;SDS011;65651;53.154;17.916;2023-05-23T07:43:04;6.20;;;3.50;;
76725;SDS011;65651;53.154;17.916;2023-05-23T07:45:32;7.80;;;3.30;;
76725;SDS011;65651;53.154;17.916;2023-05-23T07:48:03;4.50;;;3.30;;
76725;SDS011;65651;53.154;17.916;2023-05-23T07:50:31;7.20;;;2.70;;
76725;SDS011;65651;53.154;17.916;2023-05-23T07:52:58;3.00;;;2.20;;
76725;SDS011;65651;53.154;17.916;2023-05-23T07:55:28;3.50;;;2.40;;
76725;SDS011;65651;53.154;17.916;2023-05-23T07:57:56;6.40;;;2.60;;
76725;SDS011;65651;53.154;17.916;2023-05-23T08:00:23;6.20;;;2.30;;
76725;SDS011;65651;53.154;17.916;2023-05-23T08:02:52;5.30;;;2.10;;
76725;SDS011;65651;53.154;17.916;2023-05-23T08:05:23;5.50;;;2.40;;
76725;SDS011;65651;53.154;17.916;2023-05-23T08:07:51;6.40;;;2.70;;
76725;SDS011;65651;53.154;17.916;2023-05-23T08:10:20;6.50;;;2.80;;
76725;SDS011;65651;53.154;17.916;2023-05-23T08:12:48;4.00;;;2.20;;
76725;SDS011;65651;53.154;17.916;2023-05-23T08:15:17;3.40;;;2.70;;
76725;SDS011;65651;53.154;17.916;2023-05-23T08:17:51;7.50;;;2.60;;
76725;SDS011;65651;53.154;17.916;2023-05-23T08:20:23;4.10;;;2.30;;
76725;SDS011;65651;53.154;17.916;2023-05-23T08:22:57;6.80;;;2.60;;
76725;SDS011;65651;53.154;17.916;2023-05-23T08:25:26;4.50;;;2.90;;
76725;SDS011;65651;53.154;17.916;2023-05-23T08:27:58;4.10;;;2.70;;
76725;SDS011;65651;53.154;17.916;2023-05-23T08:30:47;4.10;;;2.20;;
76725;SDS011;65651;53.154;17.916;2023-05-23T08:33:16;4.30;;;2.70;;
76725;SDS011;65651;53.154;17.916;2023-05-23T08:35:46;7.40;;;2.80;;
76725;SDS011;65651;53.154;17.916;2023-05-23T08:38:14;5.60;;;2.30;;
76725;SDS011;65651;53.154;17.916;2023-05-23T08:40:50;2.90;;;2.60;;
76725;SDS011;65651;53.154;17.916;2023-05-23T08:43:19;3.20;;;2.20;;
76725;SDS011;65651;53.154;17.916;2023-05-23T08:45:49;7.50;;;2.60;;
76725;SDS011;65651;53.154;17.916;2023-05-23T08:48:19;2.70;;;2.00;;
76725;SDS011;65651;53.154;17.916;2023-05-23T08:50:49;6.40;;;2.40;;
76725;SDS011;65651;53.154;17.916;2023-05-23T08:53:18;5.50;;;2.60;;
76725;SDS011;65651;53.154;17.916;2023-05-23T08:55:53;6.90;;;2.30;;
76725;SDS011;65651;53.154;17.916;2023-05-23T08:58:28;3.30;;;2.60;;
76725;SDS011;65651;53.154;17.916;2023-05-23T09:01:03;7.00;;;2.40;;
76725;SDS011;65651;53.154;17.916;2023-05-23T09:03:31;3.60;;;2.60;;
76725;SDS011;65651;53.154;17.916;2023-05-23T09:06:08;5.50;;;2.20;;
76725;SDS011;65651;53.154;17.916;2023-05-23T09:08:36;2.90;;;1.90;;
76725;SDS011;65651;53.154;17.916;2023-05-23T09:11:05;7.50;;;2.50;;
76725;SDS011;65651;53.154;17.916;2023-05-23T09:13:35;3.40;;;2.40;;
76725;SDS011;65651;53.154;17.916;2023-05-23T09:16:10;9.70;;;2.40;;
76725;SDS011;65651;53.154;17.916;2023-05-23T09:18:48;3.40;;;2.10;;
76725;SDS011;65651;53.154;17.916;2023-05-23T09:21:17;4.70;;;2.00;;
76725;SDS011;65651;53.154;17.916;2023-05-23T09:23:51;6.60;;;3.10;;
76725;SDS011;65651;53.154;17.916;2023-05-23T09:26:19;7.60;;;2.20;;
76725;SDS011;65651;53.154;17.916;2023-05-23T09:28:46;4.30;;;2.30;;
76725;SDS011;65651;53.154;17.916;2023-05-23T09:31:14;5.10;;;2.60;;
76725;SDS011;65651;53.154;17.916;2023-05-23T09:33:44;4.40;;;2.80;;
76725;SDS011;65651;53.154;17.916;2023-05-23T09:36:16;4.90;;;2.70;;
76725;SDS011;65651;53.154;17.916;2023-05-23T09:38:45;2.60;;;2.20;;
76725;SDS011;65651;53.154;17.916;2023-05-23T09:41:14;4.00;;;2.50;;
76725;SDS011;65651;53.154;17.916;2023-05-23T09:43:48;7.60;;;3.00;;
76725;SDS011;65651;53.154;17.916;2023-05-23T09:46:18;8.10;;;3.80;;
76725;SDS011;65651;53.154;17.916;2023-05-23T09:48:47;5.30;;;2.60;;
76725;SDS011;65651;53.154;17.916;2023-05-23T09:51:17;5.90;;;2.40;;
76725;SDS011;65651;53.154;17.916;2023-05-23T09:53:47;3.80;;;2.80;;
76725;SDS011;65651;53.154;17.916;2023-05-23T09:56:15;3.70;;;2.50;;
76725;SDS011;65651;53.154;17.916;2023-05-23T09:58:46;4.70;;;2.20;;
76725;SDS011;65651;53.154;17.916;2023-05-23T10:01:15;3.50;;;2.60;;
76725;SDS011;65651;53.154;17.916;2023-05-23T10:03:50;8.30;;;2.90;;
76725;SDS011;65651;53.154;17.916;2023-05-23T10:09:32;3.90;;;2.50;;
76725;SDS011;65651;53.154;17.916;2023-05-23T10:15:06;4.90;;;2.90;;
76725;SDS011;65651;53.154;17.916;2023-05-23T10:18:25;8.70;;;2.60;;
76725;SDS011;65651;53.154;17.916;2023-05-23T10:20:38;5.50;;;3.50;;
76725;SDS011;65651;53.154;17.916;2023-05-23T10:23:09;5.80;;;2.90;;
76725;SDS011;65651;53.154;17.916;2023-05-23T10:25:38;8.40;;;4.80;;
76725;SDS011;65651;53.154;17.916;2023-05-23T10:28:07;4.70;;;3.30;;
76725;SDS011;65651;53.154;17.916;2023-05-23T10:30:36;6.60;;;2.80;;
76725;SDS011;65651;53.154;17.916;2023-05-23T10:33:04;5.00;;;2.90;;
76725;SDS011;65651;53.154;17.916;2023-05-23T10:38:30;4.60;;;2.50;;
76725;SDS011;65651;53.154;17.916;2023-05-23T10:43:59;5.00;;;3.30;;
76725;SDS011;65651;53.154;17.916;2023-05-23T10:46:50;4.70;;;3.10;;
76725;SDS011;65651;53.154;17.916;2023-05-23T10:49:22;4.10;;;3.00;;
76725;SDS011;65651;53.154;17.916;2023-05-23T10:52:04;5.00;;;2.70;;
76725;SDS011;65651;53.154;17.916;2023-05-23T10:54:33;5.50;;;2.80;;
76725;SDS011;65651;53.154;17.916;2023-05-23T10:57:02;4.90;;;2.80;;
76725;SDS011;65651;53.154;17.916;2023-05-23T10:59:30;8.80;;;2.50;;
76725;SDS011;65651;53.154;17.916;2023-05-23T11:01:58;6.60;;;3.00;;
76725;SDS011;65651;53.154;17.916;2023-05-23T11:04:27;5.50;;;2.80;;
76725;SDS011;65651;53.154;17.916;2023-05-23T11:06:55;9.00;;;3.30;;
76725;SDS011;65651;53.154;17.916;2023-05-23T11:09:23;6.40;;;2.90;;
76725;SDS011;65651;53.154;17.916;2023-05-23T11:11:51;4.00;;;2.30;;
76725;SDS011;65651;53.154;17.916;2023-05-23T11:15:05;6.30;;;2.80;;
76725;SDS011;65651;53.154;17.916;2023-05-23T11:19:39;5.00;;;2.80;;
76725;SDS011;65651;53.154;17.916;2023-05-23T11:22:26;4.80;;;2.70;;
76725;SDS011;65651;53.154;17.916;2023-05-23T11:24:55;7.70;;;4.50;;
76725;SDS011;65651;53.154;17.916;2023-05-23T11:29:58;5.40;;;3.00;;
76725;SDS011;65651;53.154;17.916;2023-05-23T11:32:28;8.50;;;3.10;;
76725;SDS011;65651;53.154;17.916;2023-05-23T11:35:07;5.40;;;3.40;;
76725;SDS011;65651;53.154;17.916;2023-05-23T11:37:37;7.10;;;3.30;;
76725;SDS011;65651;53.154;17.916;2023-05-23T11:43:06;6.20;;;2.60;;
76725;SDS011;65651;53.154;17.916;2023-05-23T11:45:35;7.70;;;3.50;;
76725;SDS011;65651;53.154;17.916;2023-05-23T11:48:04;6.40;;;2.90;;
76725;SDS011;65651;53.154;17.916;2023-05-23T11:50:42;6.00;;;2.40;;
76725;SDS011;65651;53.154;17.916;2023-05-23T11:53:12;6.00;;;2.60;;
76725;SDS011;65651;53.154;17.916;2023-05-23T11:55:40;3.20;;;2.50;;
76725;SDS011;65651;53.154;17.916;2023-05-23T11:58:14;8.10;;;3.00;;
76725;SDS011;65651;53.154;17.916;2023-05-23T12:00:43;7.40;;;2.90;;
76725;SDS011;65651;53.154;17.916;2023-05-23T12:03:11;6.10;;;2.50;;
76725;SDS011;65651;53.154;17.916;2023-05-23T12:05:41;4.30;;;2.70;;
76725;SDS011;65651;53.154;17.916;2023-05-23T12:08:10;4.40;;;3.20;;
76725;SDS011;65651;53.154;17.916;2023-05-23T12:10:52;6.30;;;2.50;;
76725;SDS011;65651;53.154;17.916;2023-05-23T12:13:23;4.50;;;2.30;;
76725;SDS011;65651;53.154;17.916;2023-05-23T12:15:53;3.70;;;2.30;;
76725;SDS011;65651;53.154;17.916;2023-05-23T12:18:28;7.30;;;2.70;;
76725;SDS011;65651;53.154;17.916;2023-05-23T12:21:03;8.50;;;2.40;;
76725;SDS011;65651;53.154;17.916;2023-05-23T12:23:34;6.00;;;2.80;;
76725;SDS011;65651;53.154;17.916;2023-05-23T12:26:05;3.60;;;2.00;;
76725;SDS011;65651;53.154;17.916;2023-05-23T12:28:36;8.40;;;2.90;;
76725;SDS011;65651;53.154;17.916;2023-05-23T12:31:12;7.20;;;2.90;;
76725;SDS011;65651;53.154;17.916;2023-05-23T12:33:43;11.20;;;2.70;;
76725;SDS011;65651;53.154;17.916;2023-05-23T12:36:13;6.30;;;3.10;;
76725;SDS011;65651;53.154;17.916;2023-05-23T12:38:42;5.00;;;2.80;;
76725;SDS011;65651;53.154;17.916;2023-05-23T12:41:12;7.30;;;2.60;;
76725;SDS011;65651;53.154;17.916;2023-05-23T12:43:49;7.70;;;3.10;;
76725;SDS011;65651;53.154;17.916;2023-05-23T12:46:21;11.20;;;2.60;;
76725;SDS011;65651;53.154;17.916;2023-05-23T12:48:49;4.90;;;2.90;;
76725;SDS011;65651;53.154;17.916;2023-05-23T12:51:18;4.10;;;2.60;;
76725;SDS011;65651;53.154;17.916;2023-05-23T12:53:46;9.60;;;3.50;;
76725;SDS011;65651;53.154;17.916;2023-05-23T12:56:14;3.90;;;2.10;;
76725;SDS011;65651;53.154;17.916;2023-05-23T12:58:41;3.80;;;2.70;;
76725;SDS011;65651;53.154;17.916;2023-05-23T13:01:09;6.60;;;3.00;;
76725;SDS011;65651;53.154;17.916;2023-05-23T13:03:36;6.50;;;2.90;;
76725;SDS011;65651;53.154;17.916;2023-05-23T13:06:04;4.70;;;2.50;;
76725;SDS011;65651;53.154;17.916;2023-05-23T13:08:32;7.50;;;3.00;;
76725;SDS011;65651;53.154;17.916;2023-05-23T13:11:01;4.50;;;2.20;;
76725;SDS011;65651;53.154;17.916;2023-05-23T13:13:28;9.90;;;2.70;;
76725;SDS011;65651;53.154;17.916;2023-05-23T13:15:55;7.50;;;2.70;;
76725;SDS011;65651;53.154;17.916;2023-05-23T13:18:23;4.20;;;2.70;;
76725;SDS011;65651;53.154;17.916;2023-05-23T13:20:50;9.30;;;2.40;;
76725;SDS011;65651;53.154;17.916;2023-05-23T13:23:18;7.30;;;2.70;;
76725;SDS011;65651;53.154;17.916;2023-05-23T13:25:45;9.00;;;3.20;;
76725;SDS011;65651;53.154;17.916;2023-05-23T13:28:13;7.60;;;2.80;;
76725;SDS011;65651;53.154;17.916;2023-05-23T13:30:40;5.20;;;3.10;;
76725;SDS011;65651;53.154;17.916;2023-05-23T13:33:10;5.70;;;2.60;;
76725;SDS011;65651;53.154;17.916;2023-05-23T13:35:37;6.40;;;2.40;;
76725;SDS011;65651;53.154;17.916;2023-05-23T13:38:05;4.70;;;2.70;;
76725;SDS011;65651;53.154;17.916;2023-05-23T13:40:32;7.00;;;3.10;;
76725;SDS011;65651;53.154;17.916;2023-05-23T13:42:59;4.60;;;2.90;;
76725;SDS011;65651;53.154;17.916;2023-05-23T13:45:27;4.60;;;2.70;;
76725;SDS011;65651;53.154;17.916;2023-05-23T13:47:56;4.60;;;3.00;;
76725;SDS011;65651;53.154;17.916;2023-05-23T13:50:23;12.40;;;3.00;;
76725;SDS011;65651;53.154;17.916;2023-05-23T13:52:51;4.40;;;3.00;;
76725;SDS011;65651;53.154;17.916;2023-05-23T13:55:19;7.00;;;2.90;;
76725;SDS011;65651;53.154;17.916;2023-05-23T13:57:47;4.50;;;2.60;;
76725;SDS011;65651;53.154;17.916;2023-05-23T14:00:14;8.80;;;3.00;;
76725;SDS011;65651;53.154;17.916;2023-05-23T14:02:42;8.70;;;3.00;;
76725;SDS011;65651;53.154;17.916;2023-05-23T14:05:09;4.80;;;2.70;;
76725;SDS011;65651;53.154;17.916;2023-05-23T14:07:37;6.40;;;2.80;;
76725;SDS011;65651;53.154;17.916;2023-05-23T14:10:04;7.60;;;2.40;;
76725;SDS011;65651;53.154;17.916;2023-05-23T14:12:32;6.80;;;3.20;;
76725;SDS011;65651;53.154;17.916;2023-05-23T14:15:00;5.40;;;2.60;;
76725;SDS011;65651;53.154;17.916;2023-05-23T14:17:28;8.00;;;2.50;;
76725;SDS011;65651;53.154;17.916;2023-05-23T14:19:55;7.50;;;2.90;;
76725;SDS011;65651;53.154;17.916;2023-05-23T14:22:23;8.50;;;2.90;;
76725;SDS011;65651;53.154;17.916;2023-05-23T14:24:51;5.70;;;2.80;;
76725;SDS011;65651;53.154;17.916;2023-05-23T14:27:18;3.00;;;2.60;;
76725;SDS011;65651;53.154;17.916;2023-05-23T14:29:45;7.10;;;3.00;;
76725;SDS011;65651;53.154;17.916;2023-05-23T14:32:12;6.20;;;2.80;;
76725;SDS011;65651;53.154;17.916;2023-05-23T14:34:40;14.20;;;3.10;;
76725;SDS011;65651;53.154;17.916;2023-05-23T14:37:07;8.50;;;2.80;;
76725;SDS011;65651;53.154;17.916;2023-05-23T14:39:35;7.90;;;2.90;;
76725;SDS011;65651;53.154;17.916;2023-05-23T14:42:02;6.20;;;2.80;;
76725;SDS011;65651;53.154;17.916;2023-05-23T14:44:30;4.90;;;2.50;;
76725;SDS011;65651;53.154;17.916;2023-05-23T14:46:57;8.00;;;3.10;;
76725;SDS011;65651;53.154;17.916;2023-05-23T14:49:24;16.10;;;2.80;;
76725;SDS011;65651;53.154;17.916;2023-05-23T14:51:52;7.20;;;2.90;;
76725;SDS011;65651;53.154;17.916;2023-05-23T14:54:21;8.20;;;2.80;;
76725;SDS011;65651;53.154;17.916;2023-05-23T14:56:48;7.00;;;3.10;;
76725;SDS011;65651;53.154;17.916;2023-05-23T14:59:16;6.50;;;2.50;;
76725;SDS011;65651;53.154;17.916;2023-05-23T15:01:44;7.40;;;2.50;;
76725;SDS011;65651;53.154;17.916;2023-05-23T15:04:11;4.80;;;3.20;;
76725;SDS011;65651;53.154;17.916;2023-05-23T15:06:39;6.20;;;2.80;;